Time;durP1;ratioP1;P1;durP2;ratioP2;P2;SDS_P1;SDS_P2;PMS_P1;PMS_P2;Temp;Humidity;BMP_temperature;BMP_pressure;BME280_temperature;BME280_humidity;BME280_pressure;Samples;Min_cycle;Max_cycle;Signal;HPM_P1;HPM_P2
2020/12/17 00:01:14;;;;;;;115.05;76.43;;;;;;;;;;5008475;28;20488;-43
2020/12/17 00:03:40;;;;;;;147.57;88.05;;;;;;;;;;5000431;28;20370;-43
2020/12/17 00:06:06;;;;;;;129.77;83.45;;;;;;;;;;5002095;28;20435;-44
2020/12/17 00:08:32;;;;;;;134.13;77.40;;;;;;;;;;5001479;28;20086;-43
2020/12/17 00:10:59;;;;;;;117.38;76.35;;;;;;;;;;5000829;28;20010;-44
2020/12/17 00:13:25;;;;;;;107.72;69.35;;;;;;;;;;5011135;28;20032;-43
2020/12/17 00:15:52;;;;;;;123.30;73.97;;;;;;;;;;5011365;28;20060;-43
2020/12/17 00:18:18;;;;;;;108.90;72.43;;;;;;;;;;5011211;28;20026;-43
2020/12/17 00:20:44;;;;;;;105.55;72.80;;;;;;;;;;5011753;28;20186;-43
2020/12/17 00:23:11;;;;;;;97.80;68.57;;;;;;;;;;5014902;28;20026;-43
2020/12/17 00:25:37;;;;;;;113.03;72.68;;;;;;;;;;5014974;28;20048;-43
2020/12/17 00:28:03;;;;;;;95.00;70.53;;;;;;;;;;5014903;28;20057;-44
2020/12/17 00:30:30;;;;;;;96.88;65.85;;;;;;;;;;5014685;28;20105;-43
2020/12/17 00:32:56;;;;;;;116.30;72.38;;;;;;;;;;5015204;28;20037;-43
2020/12/17 00:35:22;;;;;;;100.40;69.40;;;;;;;;;;5015268;28;20042;-44
2020/12/17 00:37:49;;;;;;;99.75;65.43;;;;;;;;;;5015039;28;20030;-44
2020/12/17 00:40:16;;;;;;;106.50;66.68;;;;;;;;;;5014641;28;20562;-43
2020/12/17 00:42:46;;;;;;;97.32;67.60;;;;;;;;;;5014969;28;20022;-44
2020/12/17 00:45:13;;;;;;;106.07;63.42;;;;;;;;;;5014843;28;20109;-44
2020/12/17 00:47:40;;;;;;;99.03;64.53;;;;;;;;;;5014311;28;20530;-44
2020/12/17 00:50:07;;;;;;;107.88;66.95;;;;;;;;;;5015010;28;20419;-44
2020/12/17 00:52:51;;;;;;;121.25;71.85;;;;;;;;;;5014787;28;20022;-43
2020/12/17 00:55:17;;;;;;;99.50;66.60;;;;;;;;;;5014936;28;20018;-44
2020/12/17 00:57:43;;;;;;;98.45;65.80;;;;;;;;;;5014833;28;20041;-44
2020/12/17 01:00:10;;;;;;;103.65;63.00;;;;;;;;;;5014819;28;20030;-44
2020/12/17 01:02:37;;;;;;;106.88;67.38;;;;;;;;;;5014745;28;20107;-44
2020/12/17 01:05:04;;;;;;;110.20;64.80;;;;;;;;;;5014704;28;20021;-43
2020/12/17 01:07:30;;;;;;;100.63;65.47;;;;;;;;;;5014403;28;20038;-44
2020/12/17 01:09:56;;;;;;;100.15;63.65;;;;;;;;;;5014717;28;20400;-44
2020/12/17 01:12:23;;;;;;;107.22;64.40;;;;;;;;;;5014451;28;20445;-44
2020/12/17 01:27:04;;;;;;;105.50;62.90;;;;;;;;;;4956663;28;20039;-44
2020/12/17 01:29:30;;;;;;;80.75;56.20;;;;;;;;;;5015629;28;20380;-44
2020/12/17 01:31:57;;;;;;;89.38;60.80;;;;;;;;;;5015866;28;20022;-45
2020/12/17 01:34:24;;;;;;;100.13;60.53;;;;;;;;;;5015059;28;20033;-45
2020/12/17 01:36:51;;;;;;;113.25;54.67;;;;;;;;;;5012925;28;20033;-44
2020/12/17 01:39:17;;;;;;;88.88;54.15;;;;;;;;;;5012737;28;20028;-44
2020/12/17 01:41:44;;;;;;;80.40;54.70;;;;;;;;;;5012912;28;20092;-45
2020/12/17 01:44:10;;;;;;;98.20;55.80;;;;;;;;;;5012836;28;20018;-45
2020/12/17 01:46:36;;;;;;;86.30;54.70;;;;;;;;;;5012646;28;20032;-44
2020/12/17 01:49:03;;;;;;;103.93;52.03;;;;;;;;;;5012581;28;20491;-44
2020/12/17 01:51:30;;;;;;;85.40;53.85;;;;;;;;;;5012455;28;20014;-44
2020/12/17 01:53:57;;;;;;;82.32;54.80;;;;;;;;;;5012448;28;20049;-45
2020/12/17 01:56:27;;;;;;;72.55;50.15;;;;;;;;;;5012360;28;20484;-44
2020/12/17 01:58:53;;;;;;;;;;;;;;;;;;5012850;28;20036;-44
2020/12/17 02:01:22;;;;;;;100.00;50.30;;;;;;;;;;4994850;28;19910;-44
2020/12/17 02:03:49;;;;;;;71.90;49.55;;;;;;;;;;5009912;28;20053;-44
2020/12/17 02:06:15;;;;;;;76.85;48.17;;;;;;;;;;5012291;28;20468;-45
2020/12/17 02:08:41;;;;;;;88.95;53.20;;;;;;;;;;5012779;28;20057;-44
2020/12/17 02:11:11;;;;;;;77.22;47.72;;;;;;;;;;5013207;28;20022;-45
2020/12/17 02:13:37;;;;;;;81.88;49.25;;;;;;;;;;5012704;28;20018;-44
2020/12/17 02:16:04;;;;;;;96.07;54.22;;;;;;;;;;4994164;28;20030;-44
2020/12/17 02:18:31;;;;;;;81.35;50.65;;;;;;;;;;5012165;28;20510;-44
2020/12/17 02:20:57;;;;;;;86.65;50.65;;;;;;;;;;5012053;28;20507;-44
2020/12/17 02:23:23;;;;;;;93.57;55.15;;;;;;;;;;5011958;28;20037;-44
2020/12/17 02:25:50;;;;;;;85.00;49.35;;;;;;;;;;5011937;28;20092;-44
2020/12/17 02:28:20;;;;;;;81.32;48.67;;;;;;;;;;5011990;28;20125;-44
2020/12/17 02:30:47;;;;;;;79.57;50.57;;;;;;;;;;5011701;28;20384;-44
2020/12/17 02:33:13;;;;;;;72.40;44.03;;;;;;;;;;5011554;28;20037;-44
2020/12/17 02:35:40;;;;;;;75.07;47.63;;;;;;;;;;5011737;28;20101;-44
2020/12/17 02:38:07;;;;;;;79.03;50.13;;;;;;;;;;5011840;28;20029;-44
2020/12/17 02:40:33;;;;;;;99.78;46.50;;;;;;;;;;5011522;28;20026;-44
2020/12/17 02:43:00;;;;;;;81.03;50.60;;;;;;;;;;5011599;28;20022;-44
2020/12/17 02:45:27;;;;;;;83.00;49.42;;;;;;;;;;5011299;28;20065;-44
2020/12/17 02:47:53;;;;;;;94.63;50.10;;;;;;;;;;5011578;28;20029;-44
2020/12/17 02:50:20;;;;;;;83.25;52.33;;;;;;;;;;5011481;28;20014;-44
2020/12/17 02:52:46;;;;;;;85.05;46.30;;;;;;;;;;5011473;28;20801;-44
2020/12/17 02:55:13;;;;;;;110.15;53.53;;;;;;;;;;5011419;28;20491;-44
2020/12/17 02:57:39;;;;;;;109.85;51.42;;;;;;;;;;5011116;28;20428;-44
2020/12/17 03:00:06;;;;;;;80.78;50.13;;;;;;;;;;5011209;28;20025;-44
2020/12/17 03:02:33;;;;;;;79.40;48.30;;;;;;;;;;5011116;28;20100;-44
2020/12/17 03:04:59;;;;;;;66.75;46.22;;;;;;;;;;5011116;28;20029;-44
2020/12/17 03:07:25;;;;;;;85.93;47.45;;;;;;;;;;5010836;28;20045;-44
2020/12/17 03:09:52;;;;;;;82.03;52.05;;;;;;;;;;5011086;28;20029;-44
2020/12/17 03:12:18;;;;;;;112.97;53.33;;;;;;;;;;5011582;28;20423;-44
2020/12/17 03:14:44;;;;;;;92.75;51.42;;;;;;;;;;5011512;28;20029;-45
2020/12/17 03:17:11;;;;;;;91.78;48.55;;;;;;;;;;5012384;28;20029;-44
2020/12/17 03:19:37;;;;;;;108.68;53.58;;;;;;;;;;5012223;28;20148;-44
2020/12/17 03:22:03;;;;;;;102.95;59.78;;;;;;;;;;5012349;28;20026;-44
2020/12/17 03:24:30;;;;;;;97.60;57.67;;;;;;;;;;5011988;28;20029;-44
2020/12/17 03:26:56;;;;;;;92.22;51.03;;;;;;;;;;5012127;28;20065;-44
2020/12/17 03:29:22;;;;;;;103.38;54.53;;;;;;;;;;5012124;28;20022;-44
2020/12/17 03:31:48;;;;;;;112.22;64.65;;;;;;;;;;5011898;28;20369;-44
2020/12/17 03:34:14;;;;;;;84.13;54.03;;;;;;;;;;5012064;28;20490;-44
2020/12/17 03:36:41;;;;;;;85.90;50.25;;;;;;;;;;5010843;28;20473;-44
2020/12/17 03:39:07;;;;;;;95.45;53.85;;;;;;;;;;5011920;28;20034;-44
2020/12/17 03:41:33;;;;;;;95.88;48.63;;;;;;;;;;5011957;28;20049;-44
2020/12/17 03:43:59;;;;;;;95.60;60.80;;;;;;;;;;5011968;28;20097;-45
2020/12/17 03:46:26;;;;;;;97.50;57.17;;;;;;;;;;5011696;28;20385;-44
2020/12/17 03:48:52;;;;;;;98.93;60.95;;;;;;;;;;5011860;28;20480;-44
2020/12/17 03:51:18;;;;;;;106.20;60.05;;;;;;;;;;5011133;28;20484;-44
2020/12/17 03:53:45;;;;;;;97.82;63.50;;;;;;;;;;5011898;28;20018;-44
2020/12/17 03:56:11;;;;;;;109.65;63.47;;;;;;;;;;5013195;28;20045;-44
2020/12/17 03:58:37;;;;;;;114.55;67.65;;;;;;;;;;5016032;28;20072;-44
2020/12/17 04:01:03;;;;;;;111.68;63.78;;;;;;;;;;5015662;28;20026;-44
2020/12/17 04:03:30;;;;;;;103.10;64.93;;;;;;;;;;5015473;28;20474;-44
2020/12/17 04:05:56;;;;;;;108.53;68.60;;;;;;;;;;5015894;28;20037;-44
2020/12/17 04:08:22;;;;;;;116.38;62.45;;;;;;;;;;5016016;28;20404;-44
2020/12/17 04:10:48;;;;;;;107.32;69.13;;;;;;;;;;5015720;28;20503;-44
2020/12/17 04:13:15;;;;;;;106.18;66.60;;;;;;;;;;5015697;28;20407;-44
2020/12/17 04:15:41;;;;;;;114.95;76.57;;;;;;;;;;5015504;28;20105;-44
2020/12/17 04:18:07;;;;;;;134.38;87.35;;;;;;;;;;5015492;28;20077;-44
2020/12/17 04:20:33;;;;;;;125.25;79.25;;;;;;;;;;5015418;28;20022;-44
2020/12/17 04:23:00;;;;;;;124.25;82.45;;;;;;;;;;5015316;28;20082;-44
2020/12/17 04:25:26;;;;;;;146.45;84.32;;;;;;;;;;5015328;28;20056;-44
2020/12/17 04:27:53;;;;;;;160.57;97.13;;;;;;;;;;5015126;28;20073;-44
2020/12/17 04:30:19;;;;;;;140.70;92.53;;;;;;;;;;5015384;28;20014;-44
2020/12/17 04:32:45;;;;;;;126.22;81.63;;;;;;;;;;5015379;28;20018;-44
2020/12/17 04:35:12;;;;;;;146.20;89.68;;;;;;;;;;5015085;28;20384;-44
2020/12/17 04:37:38;;;;;;;132.77;81.70;;;;;;;;;;5015203;28;20109;-44
2020/12/17 04:40:04;;;;;;;153.60;96.25;;;;;;;;;;5015196;28;20037;-44
2020/12/17 04:42:31;;;;;;;124.05;89.05;;;;;;;;;;5015214;28;20118;-44
2020/12/17 04:44:58;;;;;;;143.35;97.05;;;;;;;;;;5015095;28;20030;-44
2020/12/17 04:47:29;;;;;;;129.82;81.13;;;;;;;;;;5015045;28;20101;-44
2020/12/17 04:50:01;;;;;;;151.35;95.60;;;;;;;;;;5014941;28;20488;-44
2020/12/17 04:52:29;;;;;;;135.00;83.28;;;;;;;;;;5014970;28;20033;-44
2020/12/17 04:54:56;;;;;;;136.40;81.78;;;;;;;;;;5015126;28;20036;-44
2020/12/17 04:57:23;;;;;;;132.05;82.40;;;;;;;;;;5014749;28;20022;-44
2020/12/17 04:59:50;;;;;;;145.25;88.40;;;;;;;;;;5015136;28;20029;-44
2020/12/17 05:02:18;;;;;;;134.45;85.43;;;;;;;;;;5014857;28;20084;-44
2020/12/17 05:04:45;;;;;;;135.75;85.72;;;;;;;;;;5014923;28;20036;-44
2020/12/17 05:07:14;;;;;;;116.40;79.00;;;;;;;;;;5013452;28;20504;-44
2020/12/17 05:09:41;;;;;;;142.82;86.40;;;;;;;;;;5014386;28;20034;-44
2020/12/17 05:12:07;;;;;;;118.28;84.43;;;;;;;;;;5014790;28;20483;-44
2020/12/17 05:14:34;;;;;;;154.05;91.30;;;;;;;;;;5014673;28;20026;-44
2020/12/17 05:17:00;;;;;;;132.07;81.50;;;;;;;;;;5014625;28;20026;-44
2020/12/17 05:19:27;;;;;;;152.00;84.00;;;;;;;;;;5014479;28;20034;-44
2020/12/17 05:21:57;;;;;;;159.02;84.43;;;;;;;;;;5014754;28;20121;-44
2020/12/17 05:24:24;;;;;;;157.98;103.78;;;;;;;;;;4996901;28;20072;-44
2020/12/17 05:26:51;;;;;;;167.30;98.18;;;;;;;;;;5014168;28;20022;-44
2020/12/17 05:29:18;;;;;;;174.00;106.32;;;;;;;;;;5014264;28;20026;-44
2020/12/17 05:31:45;;;;;;;165.02;100.78;;;;;;;;;;5014203;28;20030;-44
2020/12/17 05:34:11;;;;;;;152.15;91.78;;;;;;;;;;5014010;28;20049;-44
2020/12/17 05:36:38;;;;;;;157.30;93.55;;;;;;;;;;5014156;28;20037;-44
2020/12/17 05:39:15;;;;;;;145.65;90.65;;;;;;;;;;5013991;28;20026;-44
2020/12/17 05:41:42;;;;;;;152.07;97.40;;;;;;;;;;5014071;28;20030;-44
2020/12/17 05:44:26;;;;;;;151.05;101.72;;;;;;;;;;5013948;28;20472;-44
2020/12/17 05:46:53;;;;;;;124.18;90.85;;;;;;;;;;5013938;28;20515;-44
2020/12/17 05:49:21;;;;;;;167.18;99.95;;;;;;;;;;5013905;28;20029;-44
2020/12/17 05:51:48;;;;;;;153.18;96.63;;;;;;;;;;5013806;28;20021;-44
2020/12/17 05:54:21;;;;;;;178.65;102.75;;;;;;;;;;5013715;28;20080;-44
2020/12/17 05:56:48;;;;;;;140.95;87.72;;;;;;;;;;5013728;28;20029;-44
2020/12/17 05:59:21;;;;;;;165.27;109.90;;;;;;;;;;5013625;28;20381;-44
2020/12/17 06:01:48;;;;;;;170.95;105.50;;;;;;;;;;5013910;28;20108;-44
2020/12/17 06:04:15;;;;;;;153.27;99.38;;;;;;;;;;5013743;28;20033;-44
2020/12/17 06:06:50;;;;;;;148.90;103.15;;;;;;;;;;5013906;28;20026;-44
2020/12/17 06:09:21;;;;;;;152.80;98.75;;;;;;;;;;5013572;28;20042;-44
2020/12/17 06:11:48;;;;;;;161.73;106.13;;;;;;;;;;5013362;28;20029;-44
2020/12/17 06:14:15;;;;;;;168.45;99.80;;;;;;;;;;5013489;28;20022;-44
2020/12/17 06:16:43;;;;;;;140.38;93.00;;;;;;;;;;5013233;28;20041;-44
2020/12/17 06:19:13;;;;;;;207.32;97.93;;;;;;;;;;5013003;28;20026;-44
2020/12/17 06:21:41;;;;;;;144.10;102.55;;;;;;;;;;5013198;28;20034;-44
2020/12/17 06:24:08;;;;;;;143.98;97.50;;;;;;;;;;5012973;28;20030;-44
2020/12/17 06:26:39;;;;;;;157.10;96.35;;;;;;;;;;5013188;28;20063;-44
2020/12/17 06:29:13;;;;;;;157.35;101.78;;;;;;;;;;5013230;28;20836;-44
2020/12/17 06:31:42;;;;;;;161.00;93.05;;;;;;;;;;5013151;28;20026;-43
2020/12/17 06:34:08;;;;;;;131.40;90.30;;;;;;;;;;5013174;28;20033;-43
2020/12/17 06:36:37;;;;;;;131.82;91.30;;;;;;;;;;4995401;28;20076;-44
2020/12/17 06:39:07;;;;;;;130.80;90.07;;;;;;;;;;5013018;28;20032;-43
2020/12/17 06:41:33;;;;;;;163.70;97.03;;;;;;;;;;5012869;28;20033;-43
2020/12/17 06:44:00;;;;;;;133.20;86.05;;;;;;;;;;5012884;28;20058;-44
2020/12/17 06:46:36;;;;;;;131.82;82.75;;;;;;;;;;5012790;28;20034;-44
2020/12/17 06:49:11;;;;;;;132.85;89.22;;;;;;;;;;5012797;28;20021;-44
2020/12/17 06:51:38;;;;;;;132.52;85.95;;;;;;;;;;5012872;28;20361;-44
2020/12/17 06:54:06;;;;;;;126.57;84.85;;;;;;;;;;5012446;28;20024;-44
2020/12/17 06:56:33;;;;;;;134.20;91.75;;;;;;;;;;5012745;28;20033;-44
2020/12/17 06:59:26;;;;;;;124.30;84.97;;;;;;;;;;5012661;28;20028;-44
2020/12/17 07:01:52;;;;;;;114.35;86.93;;;;;;;;;;5008309;28;20119;-44
2020/12/17 07:04:44;;;;;;;122.40;83.53;;;;;;;;;;5012462;28;20029;-44
2020/12/17 07:07:15;;;;;;;122.15;76.63;;;;;;;;;;5008243;28;20050;-44
2020/12/17 07:09:42;;;;;;;118.97;80.07;;;;;;;;;;5012495;28;20026;-44
2020/12/17 07:12:10;;;;;;;135.25;84.15;;;;;;;;;;5012373;28;20022;-43
2020/12/17 07:14:37;;;;;;;139.52;84.45;;;;;;;;;;5011982;28;20029;-43
2020/12/17 07:17:05;;;;;;;127.75;85.75;;;;;;;;;;5012414;28;20419;-43
2020/12/17 07:19:44;;;;;;;120.70;88.57;;;;;;;;;;5012335;28;20029;-44
2020/12/17 07:22:15;;;;;;;114.60;81.15;;;;;;;;;;5012194;28;20337;-43
2020/12/17 07:24:43;;;;;;;147.05;91.82;;;;;;;;;;5011175;28;20581;-44
2020/12/17 07:27:11;;;;;;;112.35;82.07;;;;;;;;;;5012157;28;20033;-44
2020/12/17 07:29:43;;;;;;;105.35;78.55;;;;;;;;;;5012272;28;20022;-44
2020/12/17 07:32:22;;;;;;;141.13;86.75;;;;;;;;;;5011546;28;20109;-44
2020/12/17 07:34:48;;;;;;;112.93;79.60;;;;;;;;;;5012092;28;20018;-44
2020/12/17 07:37:33;;;;;;;126.28;80.10;;;;;;;;;;5011982;28;20026;-44
2020/12/17 07:40:00;;;;;;;119.40;79.70;;;;;;;;;;5012070;28;20380;-44
2020/12/17 07:42:27;;;;;;;132.75;90.03;;;;;;;;;;5012021;28;20514;-44
2020/12/17 07:44:54;;;;;;;129.13;84.57;;;;;;;;;;5011896;28;20037;-44
2020/12/17 07:47:20;;;;;;;128.55;83.07;;;;;;;;;;5011903;28;20578;-43
2020/12/17 07:49:46;;;;;;;138.75;85.20;;;;;;;;;;5011982;28;20093;-44
2020/12/17 07:52:32;;;;;;;125.38;87.95;;;;;;;;;;5011916;28;20380;-44
2020/12/17 07:54:58;;;;;;;124.90;84.60;;;;;;;;;;5012034;28;20061;-44
2020/12/17 07:57:25;;;;;;;125.55;88.45;;;;;;;;;;5011854;28;20029;-44
2020/12/17 07:59:51;;;;;;;95.50;75.20;;;;;;;;;;5011932;28;20026;-44
2020/12/17 08:02:17;;;;;;;116.90;75.30;;;;;;;;;;5011227;28;20033;-44
2020/12/17 08:04:47;;;;;;;135.30;79.93;;;;;;;;;;5011560;28;20149;-44
2020/12/17 08:07:14;;;;;;;123.18;77.60;;;;;;;;;;5011486;28;20046;-44
2020/12/17 08:09:41;;;;;;;104.05;76.53;;;;;;;;;;5011802;28;20018;-44
2020/12/17 08:12:08;;;;;;;133.60;81.00;;;;;;;;;;5011810;28;20029;-44
2020/12/17 08:14:34;;;;;;;116.28;78.63;;;;;;;;;;4994188;28;20022;-44
2020/12/17 08:17:05;;;;;;;121.97;76.65;;;;;;;;;;5011799;28;20101;-44
2020/12/17 08:19:31;;;;;;;103.22;71.13;;;;;;;;;;5011642;28;20030;-44
2020/12/17 08:21:59;;;;;;;140.25;79.60;;;;;;;;;;5011570;28;20539;-44
2020/12/17 08:24:26;;;;;;;115.60;76.05;;;;;;;;;;5011655;28;20105;-44
2020/12/17 08:26:54;;;;;;;117.95;82.53;;;;;;;;;;5011642;28;20531;-43
2020/12/17 08:29:20;;;;;;;124.75;74.45;;;;;;;;;;5011369;28;20034;-43
2020/12/17 08:31:46;;;;;;;112.47;73.43;;;;;;;;;;5011556;28;20022;-44
2020/12/17 08:34:13;;;;;;;107.85;65.68;;;;;;;;;;5011638;28;20025;-43
2020/12/17 08:36:39;;;;;;;111.43;70.38;;;;;;;;;;4993952;28;20026;-44
2020/12/17 08:39:10;;;;;;;114.53;71.82;;;;;;;;;;5011422;28;20040;-44
2020/12/17 08:41:36;;;;;;;109.63;68.13;;;;;;;;;;5011968;28;20032;-44
2020/12/17 08:44:04;;;;;;;94.55;61.75;;;;;;;;;;5015043;28;20053;-43
2020/12/17 08:46:34;;;;;;;92.88;64.88;;;;;;;;;;5014977;28;20445;-44
2020/12/17 08:49:00;;;;;;;;;;;;;;;;;;5015477;28;20104;-44
2020/12/17 08:51:28;;;;;;;102.20;66.85;;;;;;;;;;5015103;28;19909;-44
2020/12/17 08:53:54;;;;;;;109.93;70.97;;;;;;;;;;5014944;28;20018;-44
2020/12/17 08:56:21;;;;;;;91.68;59.75;;;;;;;;;;5014986;28;20026;-44
2020/12/17 08:58:55;;;;;;;125.80;69.15;;;;;;;;;;5013474;28;20026;-44
2020/12/17 09:01:22;;;;;;;117.25;65.97;;;;;;;;;;5014866;28;20030;-44
2020/12/17 09:03:48;;;;;;;115.72;64.13;;;;;;;;;;5016709;28;20029;-43
2020/12/17 09:06:15;;;;;;;92.95;66.15;;;;;;;;;;5023185;28;20045;-43
2020/12/17 09:08:41;;;;;;;107.45;65.65;;;;;;;;;;5014854;28;20081;-43
2020/12/17 09:11:28;;;;;;;116.10;66.38;;;;;;;;;;5034427;28;20018;-44
2020/12/17 09:13:58;;;;;;;109.35;65.95;;;;;;;;;;5034483;28;20032;-43
2020/12/17 09:16:24;;;;;;;116.93;64.15;;;;;;;;;;5034265;28;20025;-43
2020/12/17 09:19:02;;;;;;;99.30;60.10;;;;;;;;;;5034364;28;20495;-44
2020/12/17 09:21:29;;;;;;;77.50;59.35;;;;;;;;;;5034000;28;20383;-43
2020/12/17 09:23:56;;;;;;;107.80;66.25;;;;;;;;;;5032533;28;20040;-43
2020/12/17 09:26:22;;;;;;;94.97;58.72;;;;;;;;;;5034190;28;20044;-43
2020/12/17 09:28:52;;;;;;;81.75;54.80;;;;;;;;;;5034183;28;20025;-42
2020/12/17 09:31:22;;;;;;;98.00;62.25;;;;;;;;;;5034239;28;20029;-42
2020/12/17 09:33:49;;;;;;;99.13;58.17;;;;;;;;;;5033914;28;20095;-42
2020/12/17 09:36:16;;;;;;;81.28;56.55;;;;;;;;;;5022512;28;20030;-43
2020/12/17 09:38:42;;;;;;;85.38;59.20;;;;;;;;;;5013519;28;20022;-43
2020/12/17 09:41:09;;;;;;;74.40;51.85;;;;;;;;;;5013345;28;20057;-43
2020/12/17 09:43:35;;;;;;;92.95;59.38;;;;;;;;;;5013870;28;20026;-42
2020/12/17 09:46:01;;;;;;;93.13;59.17;;;;;;;;;;5013136;28;20037;-42
2020/12/17 09:48:29;;;;;;;85.03;57.88;;;;;;;;;;5012859;28;20024;-42
2020/12/17 09:51:03;;;;;;;75.20;52.08;;;;;;;;;;5012844;28;20026;-42
2020/12/17 09:53:30;;;;;;;87.93;52.13;;;;;;;;;;5011674;28;20022;-42
2020/12/17 09:55:57;;;;;;;83.38;57.38;;;;;;;;;;5012420;28;20053;-42
2020/12/17 09:58:23;;;;;;;72.60;54.00;;;;;;;;;;4994773;28;20457;-43
2020/12/17 10:00:50;;;;;;;74.45;53.03;;;;;;;;;;5012529;28;20017;-43
2020/12/17 10:03:16;;;;;;;91.30;60.35;;;;;;;;;;4994763;28;20025;-43
2020/12/17 10:05:42;;;;;;;73.18;52.53;;;;;;;;;;4994591;28;20024;-43
2020/12/17 10:08:09;;;;;;;85.10;50.40;;;;;;;;;;4991062;28;20047;-43
2020/12/17 10:10:36;;;;;;;100.20;58.78;;;;;;;;;;4992590;28;20023;-45
2020/12/17 10:13:02;;;;;;;83.82;55.28;;;;;;;;;;4991346;28;20018;-46
2020/12/17 10:15:29;;;;;;;108.32;58.22;;;;;;;;;;4992821;28;20420;-43
2020/12/17 10:17:56;;;;;;;88.88;59.50;;;;;;;;;;4992581;28;20030;-44
2020/12/17 10:20:23;;;;;;;78.45;49.47;;;;;;;;;;4992720;28;20072;-43
2020/12/17 10:22:52;;;;;;;87.25;53.55;;;;;;;;;;4992484;28;20014;-44
2020/12/17 10:25:21;;;;;;;76.38;57.70;;;;;;;;;;4992126;28;20443;-45
2020/12/17 10:27:47;;;;;;;81.22;58.90;;;;;;;;;;4992158;28;20110;-45
2020/12/17 10:30:14;;;;;;;83.72;54.55;;;;;;;;;;4990967;28;20026;-45
2020/12/17 10:32:44;;;;;;;66.38;45.08;;;;;;;;;;4990989;28;20021;-45
2020/12/17 10:35:11;;;;;;;86.75;59.75;;;;;;;;;;4992669;28;20092;-42
2020/12/17 10:37:40;;;;;;;119.00;65.60;;;;;;;;;;4992589;28;20040;-42
2020/12/17 10:40:07;;;;;;;82.72;56.15;;;;;;;;;;4992119;28;20045;-43
2020/12/17 10:42:36;;;;;;;101.43;63.55;;;;;;;;;;4992357;28;20058;-42
2020/12/17 10:45:02;;;;;;;92.53;57.42;;;;;;;;;;4988846;28;20105;-45
2020/12/17 10:47:28;;;;;;;89.57;62.80;;;;;;;;;;4991361;28;20097;-44
2020/12/17 10:49:55;;;;;;;104.22;62.45;;;;;;;;;;4991870;28;20018;-44
2020/12/17 10:52:21;;;;;;;79.88;59.08;;;;;;;;;;4992025;28;20010;-44
2020/12/17 10:54:48;;;;;;;97.65;58.50;;;;;;;;;;4990484;28;20507;-44
2020/12/17 10:57:14;;;;;;;100.15;58.08;;;;;;;;;;4991829;28;20517;-43
2020/12/17 10:59:40;;;;;;;79.35;54.78;;;;;;;;;;4991432;28;20026;-44
2020/12/17 11:02:07;;;;;;;103.88;58.67;;;;;;;;;;4990260;28;20045;-45
2020/12/17 11:04:34;;;;;;;87.47;57.40;;;;;;;;;;4989423;28;20019;-43
2020/12/17 11:07:00;;;;;;;80.80;59.17;;;;;;;;;;4994082;28;20042;-43
2020/12/17 11:09:26;;;;;;;93.30;56.22;;;;;;;;;;5012330;28;20041;-43
2020/12/17 11:11:53;;;;;;;72.50;52.03;;;;;;;;;;5011751;28;20018;-44
2020/12/17 11:14:19;;;;;;;76.68;48.40;;;;;;;;;;5012305;28;20068;-44
2020/12/17 11:16:48;;;;;;;73.22;53.15;;;;;;;;;;5012369;28;20395;-44
2020/12/17 11:19:14;;;;;;;74.80;52.25;;;;;;;;;;5011638;28;20033;-44
2020/12/17 11:21:41;;;;;;;84.93;50.85;;;;;;;;;;5012407;28;20164;-44
2020/12/17 11:24:07;;;;;;;66.18;43.58;;;;;;;;;;5011907;28;20026;-44
2020/12/17 11:26:33;;;;;;;75.78;51.20;;;;;;;;;;5013339;28;20032;-43
2020/12/17 11:28:59;;;;;;;88.97;56.25;;;;;;;;;;5011841;28;20148;-43
2020/12/17 11:31:28;;;;;;;73.15;48.20;;;;;;;;;;5012085;28;20033;-44
2020/12/17 11:33:54;;;;;;;74.97;43.30;;;;;;;;;;5011851;28;20018;-43
2020/12/17 11:36:21;;;;;;;63.95;46.78;;;;;;;;;;5012011;28;20037;-44
2020/12/17 11:38:48;;;;;;;68.78;43.92;;;;;;;;;;5012042;28;20084;-43
2020/12/17 11:41:14;;;;;;;85.00;55.08;;;;;;;;;;5011411;28;20042;-43
2020/12/17 11:43:40;;;;;;;65.30;42.88;;;;;;;;;;5011553;28;20032;-46
2020/12/17 11:46:06;;;;;;;70.18;50.78;;;;;;;;;;5011718;28;20029;-43
2020/12/17 11:48:33;;;;;;;78.82;47.58;;;;;;;;;;5011761;28;20033;-43
2020/12/17 11:50:59;;;;;;;62.22;42.35;;;;;;;;;;5011836;28;20025;-45
2020/12/17 11:53:25;;;;;;;71.60;48.33;;;;;;;;;;5011971;28;20022;-45
2020/12/17 11:55:52;;;;;;;74.95;42.15;;;;;;;;;;5012124;28;20026;-44
2020/12/17 11:58:18;;;;;;;93.22;43.42;;;;;;;;;;5011920;28;20029;-44
2020/12/17 12:00:44;;;;;;;91.28;46.97;;;;;;;;;;5011826;28;20097;-44
2020/12/17 12:03:10;;;;;;;65.85;42.30;;;;;;;;;;5011527;28;20021;-44
2020/12/17 12:05:36;;;;;;;69.43;44.75;;;;;;;;;;5026707;28;20079;-45
2020/12/17 12:08:03;;;;;;;91.43;45.83;;;;;;;;;;5031242;28;20050;-45
2020/12/17 12:10:30;;;;;;;91.60;53.75;;;;;;;;;;5031540;28;20025;-44
2020/12/17 12:12:57;;;;;;;84.88;46.13;;;;;;;;;;5031343;28;20030;-44
2020/12/17 12:15:23;;;;;;;75.57;50.63;;;;;;;;;;5031340;28;20030;-44
2020/12/17 12:17:49;;;;;;;84.13;49.75;;;;;;;;;;5033668;28;20159;-45
2020/12/17 12:20:15;;;;;;;95.15;58.15;;;;;;;;;;5035331;28;20026;-44
2020/12/17 12:22:42;;;;;;;85.53;51.53;;;;;;;;;;5035257;28;20022;-45
2020/12/17 12:25:08;;;;;;;120.85;70.15;;;;;;;;;;5035327;28;20064;-45
2020/12/17 12:27:34;;;;;;;208.30;113.47;;;;;;;;;;5035163;28;20397;-44
2020/12/17 12:30:01;;;;;;;221.95;111.75;;;;;;;;;;5035159;28;20025;-45
2020/12/17 12:32:27;;;;;;;235.75;115.25;;;;;;;;;;5035217;28;20026;-45
2020/12/17 12:34:53;;;;;;;196.85;101.97;;;;;;;;;;5034935;28;20436;-45
2020/12/17 12:37:19;;;;;;;218.52;119.10;;;;;;;;;;5034875;28;20387;-45
2020/12/17 12:39:46;;;;;;;192.45;103.45;;;;;;;;;;5034930;28;20406;-45
2020/12/17 12:42:12;;;;;;;172.25;103.70;;;;;;;;;;5035009;28;20117;-44
2020/12/17 12:44:38;;;;;;;155.32;90.22;;;;;;;;;;5034773;28;20021;-45
2020/12/17 12:47:04;;;;;;;164.50;87.40;;;;;;;;;;5034804;28;20029;-45
2020/12/17 12:49:31;;;;;;;162.10;89.25;;;;;;;;;;5034721;28;20097;-45
2020/12/17 12:51:57;;;;;;;161.32;82.00;;;;;;;;;;5034781;28;20025;-45
2020/12/17 12:54:23;;;;;;;155.93;85.80;;;;;;;;;;5034793;28;20092;-45
2020/12/17 12:56:51;;;;;;;148.73;89.35;;;;;;;;;;5034594;28;20108;-44
2020/12/17 12:59:17;;;;;;;142.15;86.63;;;;;;;;;;5034386;28;20029;-44
2020/12/17 13:01:44;;;;;;;151.27;84.03;;;;;;;;;;5034630;28;20028;-45
2020/12/17 13:04:10;;;;;;;125.07;79.82;;;;;;;;;;5034245;28;20127;-44
2020/12/17 13:06:36;;;;;;;152.73;78.97;;;;;;;;;;5034328;28;20483;-45
2020/12/17 13:09:04;;;;;;;125.57;78.25;;;;;;;;;;5034057;28;20522;-45
2020/12/17 13:11:30;;;;;;;146.13;81.32;;;;;;;;;;5034107;28;20108;-45
2020/12/17 13:13:57;;;;;;;110.22;69.47;;;;;;;;;;5016508;28;20032;-45
2020/12/17 13:16:27;;;;;;;134.00;71.40;;;;;;;;;;5034192;28;20034;-45
2020/12/17 13:18:54;;;;;;;149.55;79.97;;;;;;;;;;5033900;28;20029;-44
2020/12/17 13:21:22;;;;;;;121.53;73.78;;;;;;;;;;5034289;28;20036;-44
2020/12/17 13:23:48;;;;;;;119.32;68.43;;;;;;;;;;5034135;28;20036;-44
2020/12/17 13:26:15;;;;;;;120.18;73.72;;;;;;;;;;5034068;28;20494;-44
2020/12/17 13:28:41;;;;;;;110.03;75.70;;;;;;;;;;5032737;28;20029;-44
2020/12/17 13:31:07;;;;;;;139.95;72.93;;;;;;;;;;5034059;28;20364;-44
2020/12/17 13:33:36;;;;;;;139.02;67.22;;;;;;;;;;5016208;28;20017;-44
2020/12/17 13:36:02;;;;;;;136.07;74.65;;;;;;;;;;5033711;28;20032;-45
2020/12/17 13:38:29;;;;;;;110.97;72.22;;;;;;;;;;5033731;28;20076;-45
2020/12/17 13:40:55;;;;;;;130.90;80.97;;;;;;;;;;5033827;28;20076;-45
2020/12/17 13:43:21;;;;;;;138.93;79.47;;;;;;;;;;5033851;28;20034;-45
2020/12/17 13:45:49;;;;;;;120.78;74.63;;;;;;;;;;5033813;28;20487;-45
2020/12/17 13:48:15;;;;;;;154.27;78.40;;;;;;;;;;5033603;28;20430;-45
2020/12/17 13:50:42;;;;;;;98.97;66.53;;;;;;;;;;5033463;28;20412;-45
2020/12/17 13:53:08;;;;;;;129.70;82.68;;;;;;;;;;5033678;28;20052;-45
2020/12/17 13:55:34;;;;;;;109.93;77.07;;;;;;;;;;5033756;28;20129;-45
2020/12/17 13:58:00;;;;;;;114.45;78.78;;;;;;;;;;5033863;28;20833;-44
2020/12/17 14:00:27;;;;;;;146.52;83.70;;;;;;;;;;5015792;28;20183;-45
2020/12/17 14:02:53;;;;;;;119.57;76.90;;;;;;;;;;5033340;28;20025;-45
2020/12/17 14:05:19;;;;;;;131.77;71.78;;;;;;;;;;5033349;28;20021;-45
2020/12/17 14:07:45;;;;;;;125.80;76.78;;;;;;;;;;5032939;28;20053;-44
2020/12/17 14:10:17;;;;;;;119.93;76.15;;;;;;;;;;5033208;28;20029;-44
2020/12/17 14:12:43;;;;;;;115.75;73.70;;;;;;;;;;5033268;28;20061;-45
2020/12/17 14:15:09;;;;;;;125.07;76.50;;;;;;;;;;5033506;28;20025;-45
2020/12/17 14:17:36;;;;;;;112.22;77.35;;;;;;;;;;5033260;28;20037;-45
2020/12/17 14:20:02;;;;;;;118.00;71.22;;;;;;;;;;5015351;28;20025;-45
2020/12/17 14:22:28;;;;;;;114.07;71.25;;;;;;;;;;5033124;28;20025;-45